Flight Track Log - Related Links

Times and Time Zones

All times are in EDT time to prevent confusion due to time zone crossing. See the N29CC flight status page for this flight to view local times or setup timezone preferences in your user account.

Time Position Orientation Groundspeed Altitude Reporting Facility
EDT Latitude Longitude Course Direction KTS MPH feet Rate Location/Type
Thu 02:08:44 PM 37.9833 -121.8000 90° East 136 157 6,800  Level Northern Cal TRACON
Thu 02:09:44 PM 37.9833 -121.7500 90° East 132 152 7,800 900 Climbing Northern Cal TRACON
Thu 02:10:44 PM 38.0000 -121.7167 58° Northeast 132 152 8,600 900 Climbing Northern Cal TRACON
Thu 02:11:44 PM 38.0333 -121.6667 50° Northeast 134 154 9,600 939 Climbing Northern Cal TRACON
Thu 02:12:39 PM 38.0500 -121.6333 58° Northeast 138 159 10,400 818 Climbing Northern Cal TRACON
Thu 02:13:12 PM 38.0528 -121.6153 79° East 138 159 10,800 702 Climbing Oakland Center
Thu 02:14:13 PM 38.0750 -121.5733 56° Northeast 141 162 11,500 341 Climbing Oakland Center
Thu 02:15:15 PM 38.0978 -121.5192 62° Northeast 172 198 11,500  Level Oakland Center
Thu 02:16:16 PM 38.1339 -121.4628 51° Northeast 181 208 11,500  Level Oakland Center
Thu 02:16:45 PM 38.1500 -121.4333 55° Northeast 185 213 11,500  Level Northern Cal TRACON
Thu 02:17:39 PM 38.1833 -121.4000 38° Northeast 186 214 11,500  Level Northern Cal TRACON
Thu 02:18:45 PM 38.2167 -121.3333 58° Northeast 185 213 11,500  Level Northern Cal TRACON
Thu 02:19:45 PM 38.2500 -121.3000 38° Northeast 184 212 11,500  Level Northern Cal TRACON
Thu 02:20:45 PM 38.2833 -121.2500 50° Northeast 186 214 11,500  Level Northern Cal TRACON
Thu 02:21:45 PM 38.3167 -121.2000 50° Northeast 190 219 11,500  Level Northern Cal TRACON
Thu 02:22:45 PM 38.3500 -121.1333 57° Northeast 186 214 11,500  Level Northern Cal TRACON
Thu 02:23:27 PM 38.3631 -121.0972 65° Northeast 188 216 11,500  Level Oakland Center
Thu 02:24:29 PM 38.3919 -121.0433 56° Northeast 187 215 11,500  Level Oakland Center
Thu 02:25:30 PM 38.4197 -120.9872 58° Northeast 187 215 11,500  Level Oakland Center
Thu 02:26:32 PM 38.4508 -120.9347 53° Northeast 186 214 11,500  Level Oakland Center
Thu 02:27:33 PM 38.4817 -120.8836 52° Northeast 183 211 11,500  Level Oakland Center
Thu 02:28:35 PM 38.5025 -120.8228 66° East 185 213 11,500  Level Oakland Center
Thu 02:29:36 PM 38.5261 -120.7661 62° Northeast 181 208 11,500  Level Oakland Center
Thu 02:30:38 PM 38.5531 -120.6956 64° Northeast 184 212 11,500  Level Oakland Center
Thu 02:31:39 PM 38.5758 -120.6372 63° Northeast 182 209 11,500  Level Oakland Center
Thu 02:32:40 PM 38.5981 -120.5772 65° Northeast 186 214 11,500  Level Oakland Center
Thu 02:33:42 PM 38.6208 -120.5197 63° Northeast 182 209 11,500  Level Oakland Center
Thu 02:34:43 PM 38.6425 -120.4611 65° Northeast 183 211 11,500  Level Oakland Center
Thu 02:35:45 PM 38.6642 -120.4022 65° Northeast 182 209 11,500  Level Oakland Center
Thu 02:36:46 PM 38.6858 -120.3433 65° Northeast 183 211 11,500 -49 Level Oakland Center
Thu 02:37:48 PM 38.7111 -120.2867 60° Northeast 184 212 11,400  Descending Oakland Center
Thu 02:38:49 PM 38.7386 -120.2161 63° Northeast 184 212 11,500  Climbing Oakland Center
Thu 02:39:51 PM 38.7633 -120.1572 62° Northeast 186 214 11,400 -97 Descending Oakland Center
Thu 02:41:00 PM 38.8007 -120.1032 48° Northeast  Level FlightAware Approximate
Thu 02:48:00 PM 38.8833 -119.9833 58° Northeast  Level FlightAware Approximate
Thu 02:49:00 PM 38.8939 -119.9953 58° Northeast  Level Estimated
Thu 02:50:00 PM 38.8939 -119.9953 58° Northeast  Level Estimated
Thu 02:51:00 PM 38.8939 -119.9953 58° Northeast  Level Estimated
Thu 02:52:00 PM 38.8939 -119.9953 58° Northeast  Level Estimated
Thu 02:53:00 PM 38.8939 -119.9953 58° Northeast  Level Estimated
Thu 02:54:00 PM 38.8939 -119.9953 58° Northeast  Level Estimated
Thu 02:55:00 PM 38.8939 -119.9953 58° Northeast  Level Estimated
Thu 02:56:00 PM 38.8939 -119.9953 58° Northeast  Level Estimated
Thu 02:57:00 PM 38.8939 -119.9953 58° Northeast  Level Estimated
Thu 02:58:00 PM 38.8939 -119.9953 58° Northeast  Level Estimated
Thu 02:59:00 PM 38.8939 -119.9953 58° Northeast  Level Estimated

Login

Don't have an account? Register now (free) for customized features, flight alerts, and more!